Weather - Helsinki Query any day in the database

Current weather  

Weather data for a selected day (2006-01-01 -2020-10-31)
Enter date:     <-     scroll days         ->
day curves
Low temperature°C +5.023:50
High temperature°C +11.013:20
Low wind chill°C 2.423:20
Average temperature°C +9.3 
High wind speed (10 min) m/s 13.413:50
Low pressurehPa 1004.012:50
High pressurehPa 1013.023:50
Low R.H% 6111:20
High R.H% 9317:20
Day weather data as a table
Date Time Temp
°C
Chill
°C
Pressure
hPA
Wind
m/s
Hum
%
Precip
mm
2014-10-29 23:50:00 5.0  2.7  1013.0 2.7 86 -
2014-10-29 23:20:00 5.0  2.4  1013.0 3.1 86 -
2014-10-29 22:50:00 6.0  3.9  1012.0 2.7 81 -
2014-10-29 22:20:00 6.0  2.8  1012.0 4.5 81 -
2014-10-29 21:50:00 7.0  4.3  1011.0 4.0 75 -
2014-10-29 21:20:00 7.0  4.3  1011.0 4.0 75 -
2014-10-29 20:50:00 7.0  4.1  1010.0 4.5 75 -
2014-10-29 20:20:00 8.0  4.3  1009.0 7.2 81 -
2014-10-29 19:50:00 9.0  5.9  1008.0 6.3 81 -
2014-10-29 19:20:00 10.0  7.0  1008.0 6.7 81 -
2014-10-29 18:50:00 10.0  7.0  1007.0 6.7 87 -
2014-10-29 18:20:00 10.0  6.8  1006.0 7.6 87 -
2014-10-29 17:50:00 10.0  6.7  1006.0 8.0 87 -
2014-10-29 17:20:00 9.0  5.1  1005.0 8.9 93 -
2014-10-29 16:50:00 9.0  4.9  1005.0 9.8 93 -
2014-10-29 16:20:00 9.0  5.0  1005.0 9.4 93 -
2014-10-29 15:50:00 10.0  5.9  1005.0 11.6 81 -
2014-10-29 15:20:00 10.0  5.6  1005.0 13.0 81 -
2014-10-29 14:50:00 10.0  5.9  1005.0 11.6 76 -
2014-10-29 14:20:00 10.0  5.6  1005.0 13.0 71 -
2014-10-29 13:50:00 10.0  5.6  1005.0 13.4 71 -
2014-10-29 13:20:00 11.0  6.9  1005.0 13.4 66 -
2014-10-29 12:50:00 11.0  6.9  1004.0 13.4 61 -
2014-10-29 12:20:00 11.0  7.0  1005.0 13.0 61 -
2014-10-29 11:50:00 11.0  7.1  1005.0 12.5 61 -
2014-10-29 11:20:00 11.0  7.1  1005.0 12.5 61 -
2014-10-29 10:50:00 10.0  5.7  1006.0 12.5 71 -
2014-10-29 10:20:00 10.0  6.0  1006.0 11.2 71 -
2014-10-29 09:50:00 10.0  6.0  1006.0 11.2 76 -
2014-10-29 09:20:00 9.0  4.6  1006.0 11.2 81 -
2014-10-29 08:50:00 9.0  4.5  1006.0 11.6 81 -
2014-10-29 08:20:00 9.0  4.6  1006.0 11.2 81 -
2014-10-29 07:50:00 9.0  4.7  1007.0 10.7 81 -
2014-10-29 07:20:00 9.0  4.9  1007.0 9.8 75 -
2014-10-29 06:50:00 9.0  4.7  1007.0 10.7 81 -
2014-10-29 06:20:00 9.0  4.8  1007.0 10.3 81 -
2014-10-29 05:50:00 9.0  4.9  1008.0 9.8 75 -
2014-10-29 05:20:00 9.0  4.9  1008.0 9.8 81 -
2014-10-29 04:50:00 10.0  6.3  1008.0 9.4 76 -
2014-10-29 04:20:00 10.0  6.1  1008.0 10.7 76 -
2014-10-29 03:50:00 10.0  6.3  1009.0 9.4 76 -
2014-10-29 03:20:00 10.0  6.1  1009.0 10.3 76 -
2014-10-29 02:50:00 10.0  6.1  1009.0 10.3 76 -
2014-10-29 02:20:00 10.0  6.1  1009.0 10.3 76 -
2014-10-29 01:50:00 11.0  7.3  1009.0 11.2 76 -
2014-10-29 01:20:00 11.0  7.3  1009.0 11.2 76 -
2014-10-29 00:50:00 11.0  7.5  1009.0 10.3 76 -
2014-10-29 00:20:00 10.0  6.3  1010.0 9.4 81 -
Unit conversions: